sensor_id;sensor_type;location;lat;lon;timestamp;pressure;altitude;pressure_sealevel;temperature;humidity
56270;BME280;42176;43.240;27.880;2023-11-19T00:01:26;98960.19;;;1.27;100.00
56270;BME280;42176;43.240;27.880;2023-11-19T00:03:27;98950.56;;;1.44;100.00
56270;BME280;42176;43.240;27.880;2023-11-19T00:05:28;98929.56;;;1.64;100.00
56270;BME280;42176;43.240;27.880;2023-11-19T00:07:29;98967.16;;;1.25;100.00
56270;BME280;42176;43.240;27.880;2023-11-19T00:09:29;98976.78;;;0.99;100.00
56270;BME280;42176;43.240;27.880;2023-11-19T00:11:30;98942.00;;;0.85;100.00
56270;BME280;42176;43.240;27.880;2023-11-19T00:13:30;98975.03;;;0.98;100.00
56270;BME280;42176;43.240;27.880;2023-11-19T00:15:31;98948.84;;;1.29;100.00
56270;BME280;42176;43.240;27.880;2023-11-19T00:17:31;98982.72;;;1.56;100.00
56270;BME280;42176;43.240;27.880;2023-11-19T00:19:32;98994.06;;;1.44;100.00
56270;BME280;42176;43.240;27.880;2023-11-19T00:21:32;98994.16;;;1.10;100.00
56270;BME280;42176;43.240;27.880;2023-11-19T00:23:33;98968.09;;;0.88;100.00
56270;BME280;42176;43.240;27.880;2023-11-19T00:25:34;98986.28;;;1.25;100.00
56270;BME280;42176;43.240;27.880;2023-11-19T00:27:35;99017.53;;;1.59;100.00
56270;BME280;42176;43.240;27.880;2023-11-19T00:29:36;99023.63;;;1.60;100.00
56270;BME280;42176;43.240;27.880;2023-11-19T00:31:36;99042.00;;;1.21;100.00
56270;BME280;42176;43.240;27.880;2023-11-19T00:33:37;99007.25;;;0.99;100.00
56270;BME280;42176;43.240;27.880;2023-11-19T00:35:37;99014.19;;;0.90;100.00
56270;BME280;42176;43.240;27.880;2023-11-19T00:37:38;99075.91;;;1.30;100.00
56270;BME280;42176;43.240;27.880;2023-11-19T00:39:40;99035.81;;;1.59;100.00
56270;BME280;42176;43.240;27.880;2023-11-19T00:41:40;99056.75;;;1.53;100.00
56270;BME280;42176;43.240;27.880;2023-11-19T00:43:41;99065.53;;;1.09;100.00
56270;BME280;42176;43.240;27.880;2023-11-19T00:45:41;99051.59;;;0.91;100.00
56270;BME280;42176;43.240;27.880;2023-11-19T00:47:43;99072.47;;;0.94;100.00
56270;BME280;42176;43.240;27.880;2023-11-19T00:49:43;99095.94;;;1.33;100.00
56270;BME280;42176;43.240;27.880;2023-11-19T00:51:44;99050.66;;;1.51;100.00
56270;BME280;42176;43.240;27.880;2023-11-19T00:53:45;99081.09;;;1.67;100.00
56270;BME280;42176;43.240;27.880;2023-11-19T00:55:46;99080.28;;;1.17;100.00
56270;BME280;42176;43.240;27.880;2023-11-19T00:57:46;99109.00;;;0.97;100.00
56270;BME280;42176;43.240;27.880;2023-11-19T00:59:47;99134.19;;;0.75;100.00
56270;BME280;42176;43.240;27.880;2023-11-19T01:01:47;99124.69;;;1.19;100.00
56270;BME280;42176;43.240;27.880;2023-11-19T01:03:48;99134.22;;;1.62;100.00
56270;BME280;42176;43.240;27.880;2023-11-19T01:05:48;99131.56;;;1.79;100.00
56270;BME280;42176;43.240;27.880;2023-11-19T01:07:49;99131.63;;;1.37;100.00
56270;BME280;42176;43.240;27.880;2023-11-19T01:09:50;99142.94;;;1.02;100.00
56270;BME280;42176;43.240;27.880;2023-11-19T01:11:51;99131.59;;;0.87;100.00
56270;BME280;42176;43.240;27.880;2023-11-19T01:13:51;99160.34;;;1.40;100.00
56270;BME280;42176;43.240;27.880;2023-11-19T01:15:52;99154.22;;;1.67;100.00
56270;BME280;42176;43.240;27.880;2023-11-19T01:17:53;99152.47;;;1.82;100.00
56270;BME280;42176;43.240;27.880;2023-11-19T01:19:53;99140.31;;;1.44;100.00
56270;BME280;42176;43.240;27.880;2023-11-19T01:21:54;99169.06;;;1.06;100.00
56270;BME280;42176;43.240;27.880;2023-11-19T01:23:55;99146.38;;;0.81;100.00
56270;BME280;42176;43.240;27.880;2023-11-19T01:25:56;99171.66;;;1.31;100.00
56270;BME280;42176;43.240;27.880;2023-11-19T01:27:56;99180.38;;;1.52;100.00
56270;BME280;42176;43.240;27.880;2023-11-19T01:30:00;99170.75;;;1.90;100.00
56270;BME280;42176;43.240;27.880;2023-11-19T01:32:06;99162.97;;;1.54;100.00
56270;BME280;42176;43.240;27.880;2023-11-19T01:34:06;99176.03;;;1.20;100.00
56270;BME280;42176;43.240;27.880;2023-11-19T01:36:07;99173.41;;;1.08;100.00
56270;BME280;42176;43.240;27.880;2023-11-19T01:38:08;99122.94;;;1.10;100.00
56270;BME280;42176;43.240;27.880;2023-11-19T01:40:09;99185.59;;;1.46;100.00
56270;BME280;42176;43.240;27.880;2023-11-19T01:42:11;99169.03;;;1.59;100.00
56270;BME280;42176;43.240;27.880;2023-11-19T01:44:12;99146.38;;;1.74;100.00
56270;BME280;42176;43.240;27.880;2023-11-19T01:46:13;99175.13;;;1.57;100.00
56270;BME280;42176;43.240;27.880;2023-11-19T01:48:14;99169.91;;;1.12;100.00
56270;BME280;42176;43.240;27.880;2023-11-19T01:50:15;99169.03;;;0.91;100.00
56270;BME280;42176;43.240;27.880;2023-11-19T01:52:16;99194.28;;;1.26;100.00
56270;BME280;42176;43.240;27.880;2023-11-19T01:54:16;99149.91;;;1.31;100.00
56270;BME280;42176;43.240;27.880;2023-11-19T01:56:17;99161.16;;;1.81;100.00
56270;BME280;42176;43.240;27.880;2023-11-19T01:58:18;99176.88;;;1.44;100.00
56270;BME280;42176;43.240;27.880;2023-11-19T02:00:19;99180.34;;;1.12;100.00
56270;BME280;42176;43.240;27.880;2023-11-19T02:02:20;99143.78;;;0.84;100.00
56270;BME280;42176;43.240;27.880;2023-11-19T02:04:21;99175.13;;;0.99;100.00
56270;BME280;42176;43.240;27.880;2023-11-19T02:06:22;99214.31;;;1.33;100.00
56270;BME280;42176;43.240;27.880;2023-11-19T02:08:23;99189.97;;;1.45;100.00
56270;BME280;42176;43.240;27.880;2023-11-19T02:10:24;99203.88;;;1.63;100.00
56270;BME280;42176;43.240;27.880;2023-11-19T02:12:25;99208.22;;;1.06;100.00
56270;BME280;42176;43.240;27.880;2023-11-19T02:14:28;99235.13;;;0.96;100.00
56270;BME280;42176;43.240;27.880;2023-11-19T02:16:29;99215.09;;;0.73;100.00
56270;BME280;42176;43.240;27.880;2023-11-19T02:18:30;99211.69;;;1.12;100.00
56270;BME280;42176;43.240;27.880;2023-11-19T02:20:30;99230.88;;;1.39;100.00
56270;BME280;42176;43.240;27.880;2023-11-19T02:22:31;99224.78;;;1.54;100.00
56270;BME280;42176;43.240;27.880;2023-11-19T02:24:32;99222.13;;;1.18;100.00
56270;BME280;42176;43.240;27.880;2023-11-19T02:26:44;99196.88;;;1.04;100.00
56270;BME280;42176;43.240;27.880;2023-11-19T02:28:48;99201.25;;;1.05;100.00
56270;BME280;42176;43.240;27.880;2023-11-19T02:30:48;99236.94;;;1.33;100.00
56270;BME280;42176;43.240;27.880;2023-11-19T02:32:49;99249.13;;;1.57;100.00
56270;BME280;42176;43.240;27.880;2023-11-19T02:34:49;99229.13;;;1.31;100.00
56270;BME280;42176;43.240;27.880;2023-11-19T02:36:50;99218.63;;;1.03;100.00
56270;BME280;42176;43.240;27.880;2023-11-19T02:38:51;99255.06;;;0.72;100.00
56270;BME280;42176;43.240;27.880;2023-11-19T02:40:51;99232.56;;;1.15;100.00
56270;BME280;42176;43.240;27.880;2023-11-19T02:42:53;99298.75;;;1.32;100.00
56270;BME280;42176;43.240;27.880;2023-11-19T02:44:55;99265.69;;;1.48;100.00
56270;BME280;42176;43.240;27.880;2023-11-19T02:46:56;99169.94;;;1.55;100.00
56270;BME280;42176;43.240;27.880;2023-11-19T02:48:59;99236.06;;;1.20;100.00
56270;BME280;42176;43.240;27.880;2023-11-19T02:51:01;99279.47;;;0.87;100.00
56270;BME280;42176;43.240;27.880;2023-11-19T02:53:03;99249.81;;;0.66;100.00
56270;BME280;42176;43.240;27.880;2023-11-19T02:55:04;99281.28;;;1.06;100.00
56270;BME280;42176;43.240;27.880;2023-11-19T02:57:09;99279.56;;;1.18;100.00
56270;BME280;42176;43.240;27.880;2023-11-19T02:59:10;99264.84;;;1.51;100.00
56270;BME280;42176;43.240;27.880;2023-11-19T03:01:27;99243.00;;;1.02;100.00
56270;BME280;42176;43.240;27.880;2023-11-19T03:03:31;99288.97;;;0.71;100.00
56270;BME280;42176;43.240;27.880;2023-11-19T03:05:38;99275.94;;;0.72;100.00
56270;BME280;42176;43.240;27.880;2023-11-19T03:07:41;99302.16;;;1.10;100.00
56270;BME280;42176;43.240;27.880;2023-11-19T03:09:45;99256.06;;;1.27;100.00
56270;BME280;42176;43.240;27.880;2023-11-19T03:11:46;99276.16;;;1.53;100.00
56270;BME280;42176;43.240;27.880;2023-11-19T03:13:46;99320.47;;;1.17;100.00
56270;BME280;42176;43.240;27.880;2023-11-19T03:15:47;99306.47;;;0.95;100.00
56270;BME280;42176;43.240;27.880;2023-11-19T03:17:48;99278.56;;;0.77;100.00
56270;BME280;42176;43.240;27.880;2023-11-19T03:19:48;99319.53;;;0.98;100.00
56270;BME280;42176;43.240;27.880;2023-11-19T03:21:49;99295.25;;;1.24;100.00
56270;BME280;42176;43.240;27.880;2023-11-19T03:23:50;99317.94;;;1.45;100.00
56270;BME280;42176;43.240;27.880;2023-11-19T03:25:51;99310.13;;;1.53;100.00
56270;BME280;42176;43.240;27.880;2023-11-19T03:27:52;99321.25;;;0.96;100.00
56270;BME280;42176;43.240;27.880;2023-11-19T03:29:53;99303.81;;;0.86;100.00
56270;BME280;42176;43.240;27.880;2023-11-19T03:31:54;99305.47;;;0.65;100.00
56270;BME280;42176;43.240;27.880;2023-11-19T03:33:54;99329.09;;;0.96;100.00
56270;BME280;42176;43.240;27.880;2023-11-19T03:35:56;99324.84;;;1.26;100.00
56270;BME280;42176;43.240;27.880;2023-11-19T03:37:57;99335.38;;;1.54;100.00
56270;BME280;42176;43.240;27.880;2023-11-19T03:39:57;99328.28;;;1.06;100.00
56270;BME280;42176;43.240;27.880;2023-11-19T03:42:00;99329.88;;;0.80;100.00
56270;BME280;42176;43.240;27.880;2023-11-19T03:44:00;99336.72;;;0.56;100.00
56270;BME280;42176;43.240;27.880;2023-11-19T03:46:01;99316.06;;;0.99;100.00
56270;BME280;42176;43.240;27.880;2023-11-19T03:48:01;99317.03;;;1.34;100.00
56270;BME280;42176;43.240;27.880;2023-11-19T03:50:03;99318.78;;;1.36;100.00
56270;BME280;42176;43.240;27.880;2023-11-19T03:52:04;99329.13;;;1.02;100.00
56270;BME280;42176;43.240;27.880;2023-11-19T03:54:05;99320.31;;;0.79;100.00
56270;BME280;42176;43.240;27.880;2023-11-19T03:56:07;99329.91;;;0.83;100.00
56270;BME280;42176;43.240;27.880;2023-11-19T03:58:09;99306.56;;;1.20;100.00
56270;BME280;42176;43.240;27.880;2023-11-19T04:00:10;99335.31;;;1.37;100.00
56270;BME280;42176;43.240;27.880;2023-11-19T04:02:15;99310.97;;;1.61;100.00
56270;BME280;42176;43.240;27.880;2023-11-19T04:04:16;99328.34;;;1.34;100.00
56270;BME280;42176;43.240;27.880;2023-11-19T04:06:16;99297.78;;;0.99;100.00
56270;BME280;42176;43.240;27.880;2023-11-19T04:08:17;99321.19;;;0.74;100.00
56270;BME280;42176;43.240;27.880;2023-11-19T04:10:17;99309.16;;;1.17;100.00
56270;BME280;42176;43.240;27.880;2023-11-19T04:12:18;99335.31;;;1.42;100.00
56270;BME280;42176;43.240;27.880;2023-11-19T04:14:19;99279.66;;;1.55;100.00
56270;BME280;42176;43.240;27.880;2023-11-19T04:16:26;99366.69;;;1.57;100.00
56270;BME280;42176;43.240;27.880;2023-11-19T04:18:28;99352.69;;;1.21;100.00
56270;BME280;42176;43.240;27.880;2023-11-19T04:20:29;99370.88;;;1.04;100.00
56270;BME280;42176;43.240;27.880;2023-11-19T04:22:29;99375.19;;;0.91;100.00
56270;BME280;42176;43.240;27.880;2023-11-19T04:24:30;99318.69;;;1.07;100.00
56270;BME280;42176;43.240;27.880;2023-11-19T04:26:30;99362.34;;;1.50;100.00
56270;BME280;42176;43.240;27.880;2023-11-19T04:28:31;99389.41;;;1.83;100.00
56270;BME280;42176;43.240;27.880;2023-11-19T04:30:31;99364.91;;;1.41;100.00
56270;BME280;42176;43.240;27.880;2023-11-19T04:32:32;99408.31;;;1.04;100.00
56270;BME280;42176;43.240;27.880;2023-11-19T04:34:33;99343.91;;;1.00;100.00
56270;BME280;42176;43.240;27.880;2023-11-19T04:36:34;99391.84;;;1.18;100.00
56270;BME280;42176;43.240;27.880;2023-11-19T04:38:34;99386.72;;;1.49;100.00
56270;BME280;42176;43.240;27.880;2023-11-19T04:40:35;99385.00;;;1.65;100.00
56270;BME280;42176;43.240;27.880;2023-11-19T04:42:35;99355.41;;;1.77;100.00
56270;BME280;42176;43.240;27.880;2023-11-19T04:44:36;99365.00;;;1.81;100.00
56270;BME280;42176;43.240;27.880;2023-11-19T04:46:36;99350.97;;;1.29;100.00
56270;BME280;42176;43.240;27.880;2023-11-19T04:48:37;99390.81;;;0.85;100.00
56270;BME280;42176;43.240;27.880;2023-11-19T04:50:37;99358.91;;;1.62;100.00
56270;BME280;42176;43.240;27.880;2023-11-19T04:52:38;99352.81;;;1.80;100.00
56270;BME280;42176;43.240;27.880;2023-11-19T04:54:45;99348.47;;;2.08;100.00
56270;BME280;42176;43.240;27.880;2023-11-19T04:56:45;99331.75;;;1.05;100.00
56270;BME280;42176;43.240;27.880;2023-11-19T04:58:47;99377.00;;;1.04;100.00
56270;BME280;42176;43.240;27.880;2023-11-19T05:00:48;99354.47;;;1.41;100.00
56270;BME280;42176;43.240;27.880;2023-11-19T05:02:48;99401.53;;;1.56;100.00
56270;BME280;42176;43.240;27.880;2023-11-19T05:04:49;99339.75;;;1.78;100.00
56270;BME280;42176;43.240;27.880;2023-11-19T05:06:49;99351.00;;;1.45;100.00
56270;BME280;42176;43.240;27.880;2023-11-19T05:08:50;99411.59;;;0.72;100.00
56270;BME280;42176;43.240;27.880;2023-11-19T05:10:50;99414.31;;;0.89;100.00
56270;BME280;42176;43.240;27.880;2023-11-19T05:12:51;99401.41;;;1.25;100.00
56270;BME280;42176;43.240;27.880;2023-11-19T05:14:52;99411.97;;;1.50;100.00
56270;BME280;42176;43.240;27.880;2023-11-19T05:16:53;99387.50;;;1.26;100.00
56270;BME280;42176;43.240;27.880;2023-11-19T05:18:53;99423.84;;;0.83;100.00
56270;BME280;42176;43.240;27.880;2023-11-19T05:20:54;99423.78;;;0.73;100.00
56270;BME280;42176;43.240;27.880;2023-11-19T05:22:54;99439.72;;;1.20;100.00
56270;BME280;42176;43.240;27.880;2023-11-19T05:24:55;99434.63;;;1.57;100.00
56270;BME280;42176;43.240;27.880;2023-11-19T05:26:56;99435.38;;;1.27;100.00
56270;BME280;42176;43.240;27.880;2023-11-19T05:28:57;99416.97;;;0.97;100.00
56270;BME280;42176;43.240;27.880;2023-11-19T05:30:58;99439.34;;;0.58;100.00
56270;BME280;42176;43.240;27.880;2023-11-19T05:32:59;99442.16;;;0.90;100.00
56270;BME280;42176;43.240;27.880;2023-11-19T05:35:00;99399.75;;;1.36;100.00
56270;BME280;42176;43.240;27.880;2023-11-19T05:37:01;99462.50;;;1.55;100.00
56270;BME280;42176;43.240;27.880;2023-11-19T05:39:02;99434.44;;;1.08;100.00
56270;BME280;42176;43.240;27.880;2023-11-19T05:41:03;99470.53;;;0.49;100.00
56270;BME280;42176;43.240;27.880;2023-11-19T05:43:05;99437.75;;;0.82;100.00
56270;BME280;42176;43.240;27.880;2023-11-19T05:45:06;99418.81;;;1.15;100.00
56270;BME280;42176;43.240;27.880;2023-11-19T05:47:08;99485.13;;;1.56;100.00
56270;BME280;42176;43.240;27.880;2023-11-19T05:49:08;99510.97;;;1.03;100.00
56270;BME280;42176;43.240;27.880;2023-11-19T05:51:09;99510.72;;;0.69;100.00
56270;BME280;42176;43.240;27.880;2023-11-19T05:53:09;99527.06;;;0.48;100.00
56270;BME280;42176;43.240;27.880;2023-11-19T05:55:10;99497.00;;;0.98;100.00
56270;BME280;42176;43.240;27.880;2023-11-19T05:57:11;99489.34;;;1.23;100.00
56270;BME280;42176;43.240;27.880;2023-11-19T05:59:14;99486.84;;;1.48;100.00
56270;BME280;42176;43.240;27.880;2023-11-19T06:01:17;99504.03;;;1.12;100.00
56270;BME280;42176;43.240;27.880;2023-11-19T06:03:18;99493.22;;;0.56;100.00
56270;BME280;42176;43.240;27.880;2023-11-19T06:05:18;99507.28;;;0.73;100.00
56270;BME280;42176;43.240;27.880;2023-11-19T06:07:19;99495.31;;;1.10;100.00
56270;BME280;42176;43.240;27.880;2023-11-19T06:09:21;99513.91;;;1.62;100.00
56270;BME280;42176;43.240;27.880;2023-11-19T06:11:23;99507.66;;;1.31;100.00
56270;BME280;42176;43.240;27.880;2023-11-19T06:13:23;99492.63;;;0.91;100.00
56270;BME280;42176;43.240;27.880;2023-11-19T06:15:26;99503.47;;;0.37;100.00
56270;BME280;42176;43.240;27.880;2023-11-19T06:17:29;99476.81;;;0.68;100.00
56270;BME280;42176;43.240;27.880;2023-11-19T06:19:30;99479.78;;;1.31;100.00
56270;BME280;42176;43.240;27.880;2023-11-19T06:21:31;99458.03;;;1.32;100.00
56270;BME280;42176;43.240;27.880;2023-11-19T06:23:31;99494.38;;;0.94;100.00
56270;BME280;42176;43.240;27.880;2023-11-19T06:25:32;99514.88;;;0.47;100.00
56270;BME280;42176;43.240;27.880;2023-11-19T06:27:33;99505.53;;;0.72;100.00
56270;BME280;42176;43.240;27.880;2023-11-19T06:29:33;99518.84;;;1.11;100.00
56270;BME280;42176;43.240;27.880;2023-11-19T06:31:34;99498.94;;;1.30;100.00
56270;BME280;42176;43.240;27.880;2023-11-19T06:33:35;99472.78;;;1.18;100.00
56270;BME280;42176;43.240;27.880;2023-11-19T06:35:35;99493.47;;;0.87;100.00
56270;BME280;42176;43.240;27.880;2023-11-19T06:37:39;99526.09;;;0.38;100.00
56270;BME280;42176;43.240;27.880;2023-11-19T06:39:40;99522.78;;;0.55;100.00
56270;BME280;42176;43.240;27.880;2023-11-19T06:41:47;99503.06;;;0.94;100.00
56270;BME280;42176;43.240;27.880;2023-11-19T06:43:47;99536.34;;;1.29;100.00
56270;BME280;42176;43.240;27.880;2023-11-19T06:45:48;99546.56;;;0.92;100.00
56270;BME280;42176;43.240;27.880;2023-11-19T06:47:49;99509.69;;;0.52;100.00
56270;BME280;42176;43.240;27.880;2023-11-19T06:49:49;99509.75;;;0.59;100.00
56270;BME280;42176;43.240;27.880;2023-11-19T06:51:50;99509.19;;;0.99;100.00
56270;BME280;42176;43.240;27.880;2023-11-19T06:53:50;99506.84;;;1.40;100.00
56270;BME280;42176;43.240;27.880;2023-11-19T06:55:51;99516.41;;;1.38;100.00
56270;BME280;42176;43.240;27.880;2023-11-19T06:57:51;99491.81;;;1.01;100.00
56270;BME280;42176;43.240;27.880;2023-11-19T06:59:52;99523.41;;;0.32;100.00
56270;BME280;42176;43.240;27.880;2023-11-19T07:01:53;99494.88;;;0.44;100.00
56270;BME280;42176;43.240;27.880;2023-11-19T07:03:53;99545.75;;;1.02;100.00
56270;BME280;42176;43.240;27.880;2023-11-19T07:05:54;99516.41;;;1.44;100.00
56270;BME280;42176;43.240;27.880;2023-11-19T07:07:56;99544.09;;;1.14;100.00
56270;BME280;42176;43.240;27.880;2023-11-19T07:09:56;99566.31;;;0.65;100.00
56270;BME280;42176;43.240;27.880;2023-11-19T07:11:57;99517.56;;;0.53;100.00
56270;BME280;42176;43.240;27.880;2023-11-19T07:13:57;99499.63;;;0.98;100.00
56270;BME280;42176;43.240;27.880;2023-11-19T07:15:58;99535.53;;;1.36;100.00
56270;BME280;42176;43.240;27.880;2023-11-19T07:17:58;99554.41;;;0.92;100.00
56270;BME280;42176;43.240;27.880;2023-11-19T07:19:59;99575.00;;;0.64;100.00
56270;BME280;42176;43.240;27.880;2023-11-19T07:22:00;99587.34;;;0.78;100.00
56270;BME280;42176;43.240;27.880;2023-11-19T07:24:02;99570.13;;;1.01;100.00
56270;BME280;42176;43.240;27.880;2023-11-19T07:26:05;99583.44;;;1.42;100.00
56270;BME280;42176;43.240;27.880;2023-11-19T07:28:08;99600.69;;;1.16;100.00
56270;BME280;42176;43.240;27.880;2023-11-19T07:30:10;99602.00;;;0.66;100.00
56270;BME280;42176;43.240;27.880;2023-11-19T07:32:11;99600.53;;;0.99;100.00
56270;BME280;42176;43.240;27.880;2023-11-19T07:34:12;99589.53;;;1.38;100.00
56270;BME280;42176;43.240;27.880;2023-11-19T07:36:14;99602.13;;;2.16;100.00
56270;BME280;42176;43.240;27.880;2023-11-19T07:38:14;99603.88;;;0.83;100.00
56270;BME280;42176;43.240;27.880;2023-11-19T07:40:15;99594.75;;;0.37;100.00
56270;BME280;42176;43.240;27.880;2023-11-19T07:42:15;99591.66;;;0.79;100.00
56270;BME280;42176;43.240;27.880;2023-11-19T07:44:16;99590.22;;;1.13;100.00
56270;BME280;42176;43.240;27.880;2023-11-19T07:46:17;99608.59;;;1.27;100.00
56270;BME280;42176;43.240;27.880;2023-11-19T07:48:19;99566.94;;;1.46;100.00
56270;BME280;42176;43.240;27.880;2023-11-19T07:52:42;99606.41;;;0.73;100.00
56270;BME280;42176;43.240;27.880;2023-11-19T07:54:43;99605.81;;;0.14;100.00
56270;BME280;42176;43.240;27.880;2023-11-19T07:56:43;99608.25;;;0.84;100.00
56270;BME280;42176;43.240;27.880;2023-11-19T07:58:44;99607.63;;;1.11;100.00
56270;BME280;42176;43.240;27.880;2023-11-19T08:00:44;99598.19;;;1.35;100.00
56270;BME280;42176;43.240;27.880;2023-11-19T08:02:45;99594.38;;;0.88;100.00
56270;BME280;42176;43.240;27.880;2023-11-19T08:04:45;99592.97;;;0.33;100.00
56270;BME280;42176;43.240;27.880;2023-11-19T08:06:46;99593.97;;;0.48;100.00
56270;BME280;42176;43.240;27.880;2023-11-19T08:08:46;99617.88;;;0.94;100.00
56270;BME280;42176;43.240;27.880;2023-11-19T08:10:48;99608.66;;;1.33;100.00
56270;BME280;42176;43.240;27.880;2023-11-19T08:12:49;99584.91;;;1.01;100.00
56270;BME280;42176;43.240;27.880;2023-11-19T08:14:50;99594.22;;;0.72;100.00
56270;BME280;42176;43.240;27.880;2023-11-19T08:16:50;99582.44;;;0.25;100.00
56270;BME280;42176;43.240;27.880;2023-11-19T08:18:52;99592.47;;;0.71;100.00
56270;BME280;42176;43.240;27.880;2023-11-19T08:20:52;99607.63;;;1.11;100.00
56270;BME280;42176;43.240;27.880;2023-11-19T08:22:53;99595.72;;;1.52;100.00
56270;BME280;42176;43.240;27.880;2023-11-19T08:24:54;99612.81;;;1.08;100.00
56270;BME280;42176;43.240;27.880;2023-11-19T08:26:54;99597.50;;;0.53;100.00
56270;BME280;42176;43.240;27.880;2023-11-19T08:28:55;99600.91;;;0.42;100.00
56270;BME280;42176;43.240;27.880;2023-11-19T08:30:55;99588.41;;;1.04;100.00
56270;BME280;42176;43.240;27.880;2023-11-19T08:32:57;99632.25;;;1.50;100.00
56270;BME280;42176;43.240;27.880;2023-11-19T08:34:59;99619.03;;;1.27;100.00
56270;BME280;42176;43.240;27.880;2023-11-19T08:36:59;99593.47;;;0.87;100.00
56270;BME280;42176;43.240;27.880;2023-11-19T08:39:00;99600.13;;;0.53;100.00
56270;BME280;42176;43.240;27.880;2023-11-19T08:41:01;99608.31;;;0.90;100.00
56270;BME280;42176;43.240;27.880;2023-11-19T08:43:01;99596.34;;;1.17;100.00
56270;BME280;42176;43.240;27.880;2023-11-19T08:45:02;99639.06;;;1.28;100.00
56270;BME280;42176;43.240;27.880;2023-11-19T08:47:03;99632.25;;;1.50;100.00
56270;BME280;42176;43.240;27.880;2023-11-19T08:49:04;99629.41;;;1.16;100.00
56270;BME280;42176;43.240;27.880;2023-11-19T08:51:05;99633.25;;;0.63;100.00
56270;BME280;42176;43.240;27.880;2023-11-19T08:53:06;99595.66;;;0.41;100.00
56270;BME280;42176;43.240;27.880;2023-11-19T08:55:07;99578.75;;;0.91;100.00
56270;BME280;42176;43.240;27.880;2023-11-19T08:57:10;99612.03;;;1.20;100.00
56270;BME280;42176;43.240;27.880;2023-11-19T08:59:10;99664.50;;;1.52;100.00
56270;BME280;42176;43.240;27.880;2023-11-19T09:01:11;99615.50;;;1.19;100.00
56270;BME280;42176;43.240;27.880;2023-11-19T09:03:11;99569.19;;;0.93;100.00
56270;BME280;42176;43.240;27.880;2023-11-19T09:05:12;99604.47;;;0.54;100.00
56270;BME280;42176;43.240;27.880;2023-11-19T09:07:13;99588.63;;;1.32;100.00
56270;BME280;42176;43.240;27.880;2023-11-19T09:09:13;99625.44;;;1.71;100.00
56270;BME280;42176;43.240;27.880;2023-11-19T09:11:14;99600.38;;;2.15;100.00
56270;BME280;42176;43.240;27.880;2023-11-19T09:13:14;99609.88;;;1.93;100.00
56270;BME280;42176;43.240;27.880;2023-11-19T09:15:15;99621.72;;;1.38;100.00
56270;BME280;42176;43.240;27.880;2023-11-19T09:17:17;99615.25;;;0.88;100.00
56270;BME280;42176;43.240;27.880;2023-11-19T09:19:18;99575.59;;;1.39;100.00
56270;BME280;42176;43.240;27.880;2023-11-19T09:21:19;99620.31;;;1.93;100.00
56270;BME280;42176;43.240;27.880;2023-11-19T09:23:19;99602.13;;;2.22;100.00
56270;BME280;42176;43.240;27.880;2023-11-19T09:25:20;99569.03;;;2.31;100.00
56270;BME280;42176;43.240;27.880;2023-11-19T09:27:21;99571.53;;;1.96;100.00
56270;BME280;42176;43.240;27.880;2023-11-19T09:29:21;99596.66;;;1.66;100.00
56270;BME280;42176;43.240;27.880;2023-11-19T09:31:22;99581.72;;;1.42;100.00
56270;BME280;42176;43.240;27.880;2023-11-19T09:33:23;99598.56;;;2.05;100.00
56270;BME280;42176;43.240;27.880;2023-11-19T09:35:24;99598.66;;;2.26;100.00
56270;BME280;42176;43.240;27.880;2023-11-19T09:37:24;99603.97;;;2.57;100.00
56270;BME280;42176;43.240;27.880;2023-11-19T09:39:25;99606.50;;;2.25;100.00
56270;BME280;42176;43.240;27.880;2023-11-19T09:41:26;99578.53;;;2.01;100.00
56270;BME280;42176;43.240;27.880;2023-11-19T09:43:28;99565.16;;;1.39;100.00
56270;BME280;42176;43.240;27.880;2023-11-19T09:45:29;99598.56;;;2.05;100.00
56270;BME280;42176;43.240;27.880;2023-11-19T09:47:33;99623.19;;;2.72;100.00
56270;BME280;42176;43.240;27.880;2023-11-19T09:49:35;99603.88;;;2.17;100.00
56270;BME280;42176;43.240;27.880;2023-11-19T09:51:36;99589.78;;;1.84;100.00
56270;BME280;42176;43.240;27.880;2023-11-19T09:53:37;99600.00;;;1.44;100.00
56270;BME280;42176;43.240;27.880;2023-11-19T09:55:37;99612.50;;;2.04;100.00
56270;BME280;42176;43.240;27.880;2023-11-19T09:57:39;99590.84;;;2.33;100.00
56270;BME280;42176;43.240;27.880;2023-11-19T09:59:40;99586.53;;;2.47;100.00
56270;BME280;42176;43.240;27.880;2023-11-19T10:01:42;99613.56;;;2.68;100.00
56270;BME280;42176;43.240;27.880;2023-11-19T10:03:46;99607.34;;;2.13;100.00
56270;BME280;42176;43.240;27.880;2023-11-19T10:05:47;99568.81;;;1.69;100.00
56270;BME280;42176;43.240;27.880;2023-11-19T10:07:48;99609.03;;;2.02;100.00
56270;BME280;42176;43.240;27.880;2023-11-19T10:10:07;99626.59;;;2.40;100.00
56270;BME280;42176;43.240;27.880;2023-11-19T10:12:09;99621.44;;;2.83;100.00
56270;BME280;42176;43.240;27.880;2023-11-19T10:14:09;99615.25;;;2.35;100.00
56270;BME280;42176;43.240;27.880;2023-11-19T10:16:12;99604.66;;;2.02;100.00
56270;BME280;42176;43.240;27.880;2023-11-19T10:18:14;99581.22;;;2.22;100.00
56270;BME280;42176;43.240;27.880;2023-11-19T10:20:14;99613.56;;;2.54;100.00
56270;BME280;42176;43.240;27.880;2023-11-19T10:22:15;99586.53;;;2.72;100.00
56270;BME280;42176;43.240;27.880;2023-11-19T10:24:31;99588.31;;;2.79;100.00
56270;BME280;42176;43.240;27.880;2023-11-19T10:26:32;99596.97;;;2.41;100.00
56270;BME280;42176;43.240;27.880;2023-11-19T10:28:43;99657.81;;;2.00;100.00
56270;BME280;42176;43.240;27.880;2023-11-19T10:30:48;99622.16;;;2.20;100.00
56270;BME280;42176;43.240;27.880;2023-11-19T10:35:08;99645.06;;;3.00;100.00
56270;BME280;42176;43.240;27.880;2023-11-19T10:37:28;99655.53;;;3.02;100.00
56270;BME280;42176;43.240;27.880;2023-11-19T10:39:51;99690.31;;;2.59;100.00